Time;durP1;ratioP1;P1;durP2;ratioP2;P2;SDS_P1;SDS_P2;PMS_P1;PMS_P2;Temp;Humidity;BMP_temperature;BMP_pressure;BME280_temperature;BME280_humidity;BME280_pressure;Samples;Min_cycle;Max_cycle;Signal;HPM_P1;HPM_P2
2022/10/19 00:02:00;;;;;;;4.77;4.40;;;;;;;-142.65;91.36;50170.78;5113592;28;20197;-68
2022/10/19 00:04:27;;;;;;;8.33;4.30;;;;;;;-142.65;91.46;50176.75;5113632;28;20655;-68
2022/10/19 00:06:54;;;;;;;4.43;4.23;;;;;;;;;;5095677;28;20202;-68
2022/10/19 00:09:21;;;;;;;5.57;3.97;;;;;;;-142.65;91.63;50174.75;5114113;28;20187;-68
2022/10/19 00:11:49;;;;;;;4.77;4.57;;;;;;;-142.65;91.63;50178.75;5113589;28;20691;-68
2022/10/19 00:14:19;;;;;;;4.43;4.10;;;;;;;-142.65;91.60;50178.75;5113339;28;20690;-68
2022/10/19 00:16:46;;;;;;;3.53;3.43;;;;;;;;;;5114375;28;20177;-68
2022/10/19 00:19:21;;;;;;;3.40;3.30;;;;;;;-142.65;91.38;50178.75;5113730;28;20200;-68
2022/10/19 00:21:48;;;;;;;3.90;2.87;;;;;;;;;;5113725;28;20212;-68
2022/10/19 00:24:20;;;;;;;4.50;3.83;;;;;;;-142.65;90.98;50172.78;5113734;28;20252;-68
2022/10/19 00:26:46;;;;;;;3.97;3.87;;;;;;;;;;5113766;28;20515;-68
2022/10/19 00:29:14;;;;;;;4.33;4.03;;;;;;;-142.65;91.25;50176.75;5095686;28;20205;-68
2022/10/19 00:31:41;;;;;;;4.37;4.17;;;;;;;-142.65;91.41;50168.78;5117402;28;20298;-68
2022/10/19 00:34:08;;;;;;;3.97;3.87;;;;;;;-142.65;91.41;50170.78;5117307;28;20219;-68
2022/10/19 00:36:38;;;;;;;4.70;4.33;;;;;;;-142.65;91.38;50170.78;5117318;28;20189;-68
2022/10/19 00:39:08;;;;;;;4.90;4.30;;;;;;;-142.65;91.52;50172.78;5117582;28;20173;-68
2022/10/19 00:41:35;;;;;;;4.10;3.90;;;;;;;-142.65;91.62;50168.78;5117139;28;20218;-68
2022/10/19 00:44:06;;;;;;;6.00;4.43;;;;;;;-142.65;91.63;50182.72;5117440;28;20188;-68
2022/10/19 00:46:36;;;;;;;4.77;4.60;;;;;;;-142.65;91.60;50180.75;5117149;28;20177;-68
2022/10/19 00:49:06;;;;;;;4.50;4.30;;;;;;;-142.65;91.65;50174.75;5117637;28;20198;-68
2022/10/19 00:51:39;;;;;;;3.67;3.67;;;;;;;-142.65;91.75;50182.72;5117164;28;20278;-68
2022/10/19 00:54:07;;;;;;;3.57;3.30;;;;;;;-142.65;91.71;50172.78;5098638;28;20220;-68
2022/10/19 00:56:37;;;;;;;4.27;4.13;;;;;;;-142.65;91.87;50170.78;5116961;28;20193;-68
2022/10/19 00:59:05;;;;;;;3.70;3.60;;;;;;;-142.65;91.88;50172.78;5116894;28;20192;-68
2022/10/19 01:01:32;;;;;;;4.43;4.33;;;;;;;-142.65;91.81;50170.78;5116785;28;20211;-68
2022/10/19 01:04:00;;;;;;;3.53;3.53;;;;;;;-142.65;91.75;50172.78;5116811;28;20266;-68
2022/10/19 01:06:27;;;;;;;4.47;4.27;;;;;;;-142.65;91.73;50178.75;5117049;28;20548;-68
2022/10/19 01:08:53;;;;;;;4.60;4.50;;;;;;;-142.65;91.60;50168.78;5116996;28;20188;-68
2022/10/19 01:11:58;;;;;;;3.77;3.67;;;;;;;-142.65;91.73;50168.78;5116631;28;20572;-68
2022/10/19 01:14:59;;;;;;;4.97;4.80;;;;;;;-142.65;91.81;50178.75;5115986;28;20226;-68
2022/10/19 01:17:40;;;;;;;4.37;4.03;;;;;;;-142.65;91.73;50182.72;5116563;28;20189;-67
2022/10/19 01:20:27;;;;;;;3.80;3.60;;;;;;;-142.65;91.72;50180.75;5116755;28;21836;-68
2022/10/19 01:22:53;;;;;;;4.03;3.83;;;;;;;-142.65;91.77;50180.75;5116773;28;20188;-68
2022/10/19 01:25:26;;;;;;;3.93;3.70;;;;;;;-142.65;91.77;50178.75;5116410;28;20177;-68
2022/10/19 01:28:12;;;;;;;4.23;4.17;;;;;;;-142.65;91.87;50178.75;5116343;28;20200;-68
2022/10/19 01:31:11;;;;;;;4.20;4.10;;;;;;;-142.65;91.86;50178.75;5116527;28;20209;-68
2022/10/19 01:33:50;;;;;;;3.87;3.50;;;;;;;-142.65;91.83;50178.75;5116486;28;20185;-68
2022/10/19 01:36:38;;;;;;;3.90;3.70;;;;;;;-142.65;91.85;50180.75;5116521;28;20172;-67
2022/10/19 01:39:37;;;;;;;4.03;3.97;;;;;;;-142.65;91.81;50182.72;5116697;28;20191;-67
2022/10/19 01:42:32;;;;;;;4.57;4.47;;;;;;;-142.65;91.74;50172.78;5080633;28;20274;-67
2022/10/19 01:45:10;;;;;;;4.17;4.07;;;;;;;-142.65;91.88;50170.78;5094870;28;20209;-67
2022/10/19 01:47:46;;;;;;;4.33;4.23;;;;;;;-142.65;91.88;50176.75;5116304;28;20172;-67
2022/10/19 01:50:25;;;;;;;3.80;3.70;;;;;;;-142.65;91.95;50182.72;5116138;28;20579;-67
2022/10/19 01:52:54;;;;;;;3.50;3.40;;;;;;;-142.65;92.04;50170.78;5116458;28;20173;-67
2022/10/19 01:55:23;;;;;;;3.73;3.67;;;;;;;-142.65;92.02;50176.75;5116251;28;20198;-67
2022/10/19 01:57:55;;;;;;;3.73;3.63;;;;;;;-142.65;92.21;50174.75;5116027;28;20647;-67
2022/10/19 02:00:23;;;;;;;4.73;4.00;;;;;;;-142.65;92.21;50178.75;5115978;28;20562;-68
2022/10/19 02:02:52;;;;;;;4.13;3.90;;;;;;;-142.65;92.13;50168.78;5116486;28;20528;-67
2022/10/19 02:05:21;;;;;;;3.57;3.33;;;;;;;-142.65;91.87;50180.75;5115600;28;20185;-67
2022/10/19 02:07:56;;;;;;;3.80;3.67;;;;;;;-142.65;91.74;50174.75;5115576;28;20192;-67
2022/10/19 02:10:24;;;;;;;3.97;3.83;;;;;;;-142.65;91.80;50170.78;5115753;28;20694;-67
2022/10/19 02:12:53;;;;;;;3.57;3.47;;;;;;;-142.65;91.95;50174.75;5115457;28;20181;-67
2022/10/19 02:15:24;;;;;;;3.90;3.80;;;;;;;-142.65;92.17;50178.75;5115244;28;20215;-67
2022/10/19 02:17:56;;;;;;;3.97;3.27;;;;;;;-142.65;92.15;50178.75;5115675;28;20169;-67
2022/10/19 02:20:22;;;;;;;3.93;3.63;;;;;;;-142.65;92.11;50180.75;5115296;28;20228;-68
2022/10/19 02:22:49;;;;;;;4.17;4.07;;;;;;;-142.65;92.29;50174.75;5115820;28;20194;-67
2022/10/19 02:25:16;;;;;;;4.23;4.13;;;;;;;-142.65;92.28;50174.75;5115455;28;20572;-67
2022/10/19 02:27:43;;;;;;;8.97;4.83;;;;;;;-142.65;92.32;50178.75;5115455;28;20178;-67
2022/10/19 02:30:13;;;;;;;5.77;5.57;;;;;;;-142.65;92.35;50182.72;5115480;28;20691;-67
2022/10/19 02:32:39;;;;;;;5.67;5.43;;;;;;;;;;5115076;28;20181;-67
2022/10/19 02:35:06;;;;;;;6.57;6.17;;;;;;;-142.65;92.59;50172.78;5115242;28;20208;-67
2022/10/19 02:37:33;;;;;;;5.50;5.07;;;;;;;-142.65;92.69;50172.78;5114962;28;20196;-67
2022/10/19 02:40:06;;;;;;;6.23;5.63;;;;;;;-142.65;92.99;50168.78;5115202;28;20264;-67
2022/10/19 02:42:37;;;;;;;5.97;5.70;;;;;;;-142.65;93.02;50170.78;5114863;28;20188;-67
2022/10/19 02:45:04;;;;;;;8.13;5.20;;;;;;;-142.65;93.15;50178.75;5114842;28;20173;-67
2022/10/19 02:47:35;;;;;;;6.83;6.43;;;;;;;-142.65;93.26;50182.72;5115095;28;20173;-67
2022/10/19 02:50:05;;;;;;;4.80;4.60;;;;;;;;;;5114967;28;20182;-67
2022/10/19 02:52:32;;;;;;;5.73;5.33;;;;;;;-142.65;93.49;50178.75;5114324;28;20193;-67
2022/10/19 02:54:58;;;;;;;5.70;5.40;;;;;;;;;;5115126;28;20666;-67
2022/10/19 02:57:24;;;;;;;7.57;5.50;;;;;;;-142.65;93.55;50178.75;5114606;28;20189;-67
2022/10/19 02:59:51;;;;;;;6.13;5.70;;;;;;;-142.65;93.68;50180.75;5114521;28;20185;-68
2022/10/19 03:02:19;;;;;;;9.17;6.00;;;;;;;-142.65;93.74;50170.78;5114528;28;20200;-67
2022/10/19 03:04:46;;;;;;;8.50;6.83;;;;;;;-142.65;93.64;50178.75;5114772;28;20185;-67
2022/10/19 03:07:19;;;;;;;6.47;6.13;;;;;;;-142.65;93.88;50180.75;5114463;28;20538;-67
2022/10/19 03:09:45;;;;;;;9.17;5.43;;;;;;;;;;5114357;28;20188;-67
2022/10/19 03:12:13;;;;;;;7.43;6.47;;;;;;;-142.65;93.95;50172.78;5114262;28;20201;-67
2022/10/19 03:14:39;;;;;;;6.87;6.57;;;;;;;-142.65;93.94;50176.75;5114079;28;20216;-67
2022/10/19 03:17:05;;;;;;;7.17;5.80;;;;;;;-142.65;93.99;50182.72;5114553;28;20177;-67
2022/10/19 03:19:34;;;;;;;7.63;6.73;;;;;;;-142.65;93.88;50180.75;5114789;28;20181;-67
2022/10/19 03:22:00;;;;;;;10.97;6.63;;;;;;;-142.65;94.02;50176.75;5114098;28;20216;-67
2022/10/19 03:24:29;;;;;;;6.13;5.73;;;;;;;-142.65;94.11;50174.75;5114178;28;20177;-67
2022/10/19 03:26:55;;;;;;;8.67;7.00;;;;;;;-142.65;94.09;50178.75;5114654;28;20513;-67
2022/10/19 03:29:22;;;;;;;9.40;6.87;;;;;;;-142.65;94.28;50180.75;5114045;28;20191;-67
2022/10/19 03:31:49;;;;;;;7.10;6.60;;;;;;;-142.65;94.34;50184.72;5113937;28;20574;-67
2022/10/19 03:34:15;;;;;;;7.07;6.57;;;;;;;-142.65;94.42;50172.78;5114210;28;20220;-67
2022/10/19 03:36:41;;;;;;;11.07;6.87;;;;;;;-142.65;94.61;50182.72;5113928;28;20191;-67
2022/10/19 03:39:13;;;;;;;7.00;6.37;;;;;;;-142.65;94.80;50178.75;5113916;28;20191;-67
2022/10/19 03:41:39;;;;;;;8.90;6.73;;;;;;;-142.65;94.92;50172.78;5114123;28;20573;-67
2022/10/19 03:44:07;;;;;;;8.57;7.10;;;;;;;-142.65;95.03;50178.75;5113800;28;20651;-67
2022/10/19 03:46:34;;;;;;;9.10;8.13;;;;;;;-142.65;95.01;50172.78;5113810;28;20185;-67
2022/10/19 03:49:01;;;;;;;8.60;7.90;;;;;;;-142.65;95.60;50180.75;5113805;28;20183;-67
2022/10/19 03:51:29;;;;;;;8.17;7.37;;;;;;;-142.65;95.63;50180.75;5113804;28;20275;-67
2022/10/19 03:54:13;;;;;;;8.00;7.57;;;;;;;-142.65;95.75;50178.75;5113696;28;20187;-67
2022/10/19 03:56:40;;;;;;;7.53;6.67;;;;;;;-142.65;95.83;50180.75;5113739;28;20176;-67
2022/10/19 03:59:07;;;;;;;8.47;7.77;;;;;;;-142.65;95.95;50178.75;5113775;28;20189;-67
2022/10/19 04:01:38;;;;;;;7.30;6.73;;;;;;;-142.65;96.07;50182.72;5113534;28;20201;-67
2022/10/19 04:04:09;;;;;;;14.40;7.43;;;;;;;-142.65;96.13;50178.75;5114035;28;20180;-67
2022/10/19 04:06:38;;;;;;;8.93;8.20;;;;;;;-142.65;96.16;50170.78;5118209;28;20181;-67
2022/10/19 04:09:06;;;;;;;7.53;7.07;;;;;;;-142.65;96.27;50178.75;5117841;28;20181;-68
2022/10/19 04:11:33;;;;;;;13.93;8.63;;;;;;;-142.65;96.32;50178.75;5117986;28;20211;-67
2022/10/19 04:14:00;;;;;;;9.37;8.47;;;;;;;-142.65;96.32;50174.75;5117584;28;20193;-67
2022/10/19 04:16:28;;;;;;;9.93;8.53;;;;;;;-142.65;96.48;50178.75;5118181;28;20264;-67
2022/10/19 04:18:55;;;;;;;8.37;7.73;;;;;;;-142.65;96.51;50182.72;5117718;28;20189;-67
2022/10/19 04:21:23;;;;;;;10.73;7.93;;;;;;;-142.65;96.58;50168.78;5117559;28;20293;-67
2022/10/19 04:23:51;;;;;;;9.03;8.23;;;;;;;-142.65;96.57;50180.75;5117822;28;20584;-67
2022/10/19 04:26:18;;;;;;;8.93;7.87;;;;;;;-142.65;96.69;50178.75;5117477;28;20165;-67
2022/10/19 04:28:45;;;;;;;8.57;7.77;;;;;;;-142.65;96.65;50180.75;5117754;28;20185;-67
2022/10/19 04:31:11;;;;;;;7.90;7.50;;;;;;;-142.65;96.71;50170.78;5117344;28;20291;-67
2022/10/19 04:33:38;;;;;;;8.60;8.13;;;;;;;-142.65;96.81;50180.75;5117383;28;20177;-67
2022/10/19 04:36:08;;;;;;;10.60;7.87;;;;;;;-142.65;96.73;50172.78;5117220;28;20201;-67
2022/10/19 04:38:35;;;;;;;13.23;8.33;;;;;;;-142.65;96.96;50176.75;5117322;28;20189;-67
2022/10/19 04:41:03;;;;;;;8.73;7.93;;;;;;;-142.65;96.88;50182.72;5117162;28;20209;-67
2022/10/19 04:43:30;;;;;;;9.70;7.60;;;;;;;-142.65;96.91;50174.75;5117197;28;20200;-67
2022/10/19 04:46:02;;;;;;;7.93;7.27;;;;;;;-142.65;96.95;50182.72;5117153;28;20186;-67
2022/10/19 04:48:28;;;;;;;7.80;7.10;;;;;;;-142.65;96.86;50170.78;5117751;28;20174;-67
2022/10/19 04:50:54;;;;;;;8.50;7.83;;;;;;;-142.65;96.91;50180.75;5117537;28;20201;-67
2022/10/19 04:53:21;;;;;;;8.90;8.13;;;;;;;-142.65;96.98;50178.75;5117343;28;20552;-67
2022/10/19 04:55:47;;;;;;;7.67;7.13;;;;;;;-142.65;97.00;50180.75;5117460;28;20205;-67
2022/10/19 04:58:13;;;;;;;8.70;7.97;;;;;;;-142.65;97.00;50180.75;5116974;28;20186;-67
2022/10/19 05:00:40;;;;;;;9.13;8.23;;;;;;;-142.65;96.96;50170.78;5117182;28;20574;-67
2022/10/19 05:03:06;;;;;;;17.57;8.90;;;;;;;-142.65;97.16;50172.78;5116848;28;20258;-67
2022/10/19 05:05:34;;;;;;;9.30;8.40;;;;;;;-142.65;97.17;50178.75;5116766;28;20181;-67
2022/10/19 05:08:00;;;;;;;7.97;7.47;;;;;;;-142.65;97.20;50182.72;5117008;28;20192;-67
2022/10/19 05:10:27;;;;;;;11.07;7.90;;;;;;;-142.65;97.01;50174.75;5116665;28;20205;-67
2022/10/19 05:12:53;;;;;;;9.07;8.27;;;;;;;-142.65;97.16;50182.72;5116649;28;20201;-67
2022/10/19 05:15:20;;;;;;;13.40;8.10;;;;;;;-142.65;97.09;50178.75;5116179;28;20223;-67
2022/10/19 05:17:46;;;;;;;9.33;7.97;;;;;;;-142.65;97.19;50172.78;5117081;28;20191;-67
2022/10/19 05:20:13;;;;;;;12.53;8.53;;;;;;;-142.65;97.17;50174.75;5116651;28;20201;-67
2022/10/19 05:22:39;;;;;;;10.20;8.40;;;;;;;-142.65;97.05;50178.75;5116977;28;20189;-67
2022/10/19 05:25:06;;;;;;;8.03;7.53;;;;;;;-142.65;97.01;50182.72;5116354;28;20178;-67
2022/10/19 05:27:33;;;;;;;8.23;7.50;;;;;;;-142.65;96.98;50178.75;5116276;28;20186;-67
2022/10/19 05:29:59;;;;;;;6.47;6.27;;;;;;;-142.65;97.13;50180.75;5116158;28;20185;-68
2022/10/19 05:32:26;;;;;;;7.40;7.00;;;;;;;;;;5116557;28;20177;-67
2022/10/19 05:34:53;;;;;;;8.27;7.67;;;;;;;-142.65;96.86;50174.75;5116367;28;20208;-67
2022/10/19 05:37:20;;;;;;;8.23;7.70;;;;;;;-142.65;96.83;50180.75;5116112;28;20189;-67
2022/10/19 05:39:46;;;;;;;15.00;9.07;;;;;;;-142.65;96.86;50170.78;5116566;28;20186;-68
2022/10/19 05:42:13;;;;;;;15.17;9.63;;;;;;;-142.65;96.80;50178.75;5115961;28;20205;-67
2022/10/19 05:44:39;;;;;;;11.03;7.83;;;;;;;-142.65;96.82;50176.75;5115957;28;20687;-67
2022/10/19 05:47:06;;;;;;;10.70;9.17;;;;;;;-142.65;96.71;50180.75;5116242;28;20547;-67
2022/10/19 05:49:32;;;;;;;8.97;8.23;;;;;;;-142.65;96.82;50176.75;5116175;28;20182;-67
2022/10/19 05:51:58;;;;;;;9.47;8.33;;;;;;;-142.65;96.76;50178.75;5115844;28;20205;-67
2022/10/19 05:54:25;;;;;;;9.47;8.27;;;;;;;-142.65;96.68;50178.75;5115824;28;20185;-67
2022/10/19 05:56:54;;;;;;;11.47;7.67;;;;;;;-142.65;96.57;50176.75;5115748;28;20718;-67
2022/10/19 05:59:21;;;;;;;7.83;7.37;;;;;;;-142.65;96.58;50178.75;5115648;28;20181;-67
2022/10/19 06:01:47;;;;;;;14.30;8.97;;;;;;;-142.65;96.46;50178.75;5115879;28;20224;-67
2022/10/19 06:04:14;;;;;;;8.53;8.00;;;;;;;-142.65;96.42;50174.75;5116279;28;20189;-67
2022/10/19 06:06:43;;;;;;;7.83;7.33;;;;;;;-142.65;96.36;50174.75;5115772;28;20651;-67
2022/10/19 06:09:10;;;;;;;10.13;9.10;;;;;;;-142.65;96.43;50172.78;5115544;28;20189;-67
2022/10/19 06:11:38;;;;;;;19.10;10.67;;;;;;;-142.65;96.43;50178.75;5115903;28;20566;-67
2022/10/19 06:14:15;;;;;;;22.97;13.03;;;;;;;-142.65;96.42;50180.75;5115323;28;20208;-67
2022/10/19 06:16:44;;;;;;;16.03;10.53;;;;;;;-142.65;96.51;50178.75;5112470;28;20211;-68
2022/10/19 06:19:11;;;;;;;16.10;11.97;;;;;;;-142.65;96.54;50182.72;5114338;28;20199;-67
2022/10/19 06:21:37;;;;;;;17.27;11.10;;;;;;;-142.65;96.62;50182.72;5115815;28;20212;-67
2022/10/19 06:24:10;;;;;;;21.00;11.87;;;;;;;-142.65;96.70;50180.75;5114575;28;20199;-67
2022/10/19 06:26:36;;;;;;;17.33;12.50;;;;;;;-142.65;96.86;50180.75;5114164;28;20189;-68
2022/10/19 06:29:03;;;;;;;14.23;12.83;;;;;;;-142.65;96.94;50178.75;5114700;28;20670;-67
2022/10/19 06:31:32;;;;;;;20.60;14.13;;;;;;;-142.65;97.09;50170.78;5115144;28;20228;-67
2022/10/19 06:33:59;;;;;;;27.03;13.33;;;;;;;-142.65;97.05;50182.72;5115607;28;20190;-67
2022/10/19 06:36:28;;;;;;;22.20;13.20;;;;;;;-142.65;97.13;50182.72;5114939;28;20251;-67
2022/10/19 06:38:55;;;;;;;17.93;13.60;;;;;;;-142.65;97.23;50178.75;5114684;28;20193;-67
2022/10/19 06:41:22;;;;;;;24.33;14.17;;;;;;;-142.65;97.04;50172.78;5114903;28;20211;-67
2022/10/19 06:43:50;;;;;;;18.27;12.50;;;;;;;-142.65;97.16;50170.78;5114893;28;20181;-67
2022/10/19 06:46:19;;;;;;;17.47;13.50;;;;;;;-142.65;97.25;50170.78;5114792;28;20644;-67
2022/10/19 06:48:50;;;;;;;18.33;13.60;;;;;;;-142.65;97.39;50176.75;5113732;28;20189;-67
2022/10/19 06:51:17;;;;;;;21.13;12.47;;;;;;;-142.65;97.28;50178.75;5113665;28;20205;-68
2022/10/19 06:53:43;;;;;;;16.83;13.70;;;;;;;-142.65;97.45;50176.75;5110235;28;20207;-68
2022/10/19 06:56:10;;;;;;;21.00;13.87;;;;;;;-142.65;97.49;50172.78;5113792;28;20213;-67
2022/10/19 06:58:37;;;;;;;13.07;11.77;;;;;;;-142.65;97.63;50180.75;5114639;28;20188;-67
2022/10/19 07:01:06;;;;;;;15.97;13.33;;;;;;;-142.65;97.66;50178.75;5113551;28;20204;-67
2022/10/19 07:03:33;;;;;;;16.13;12.23;;;;;;;-142.65;97.81;50182.72;5114409;28;20200;-67
2022/10/19 07:06:02;;;;;;;19.37;13.87;;;;;;;-142.65;97.80;50176.75;5114416;28;20553;-67
2022/10/19 07:08:31;;;;;;;31.00;14.17;;;;;;;-142.65;97.96;50174.75;5114908;28;20194;-67
2022/10/19 07:11:00;;;;;;;19.80;15.30;;;;;;;-142.65;97.98;50178.75;5114400;28;20201;-68
2022/10/19 07:13:28;;;;;;;20.37;15.30;;;;;;;-142.65;98.04;50174.75;5114121;28;20639;-67
2022/10/19 07:15:59;;;;;;;16.60;13.43;;;;;;;-142.65;98.17;50182.72;5114483;28;20619;-67
2022/10/19 07:18:26;;;;;;;14.00;12.73;;;;;;;-142.65;98.33;50178.75;5114523;28;20165;-67
2022/10/19 07:20:56;;;;;;;19.93;15.00;;;;;;;-142.65;98.28;50176.75;5114244;28;20212;-68
2022/10/19 07:23:24;;;;;;;21.60;15.47;;;;;;;-142.65;98.37;50180.75;5114154;28;20176;-67
2022/10/19 07:25:52;;;;;;;21.73;15.47;;;;;;;-142.65;98.36;50168.78;5114114;28;20200;-67
2022/10/19 07:28:20;;;;;;;22.57;15.23;;;;;;;-142.65;98.34;50178.75;5114609;28;20257;-67
2022/10/19 07:30:47;;;;;;;21.23;14.67;;;;;;;-142.65;98.59;50176.75;5113967;28;20205;-68
2022/10/19 07:33:13;;;;;;;23.03;15.43;;;;;;;-142.65;98.59;50170.78;5114034;28;20232;-67
2022/10/19 07:35:40;;;;;;;27.07;16.30;;;;;;;-142.65;98.69;50178.75;5114427;28;20220;-67
2022/10/19 07:38:07;;;;;;;26.57;16.47;;;;;;;-142.65;98.89;50178.75;5114470;28;20189;-67
2022/10/19 07:40:34;;;;;;;33.63;18.13;;;;;;;-142.65;98.87;50178.75;5114339;28;20197;-68
2022/10/19 07:43:00;;;;;;;26.67;16.63;;;;;;;-142.65;99.08;50182.72;5114122;28;20189;-68
2022/10/19 07:45:27;;;;;;;30.87;17.23;;;;;;;-142.65;99.21;50168.78;5113811;28;20189;-68
2022/10/19 07:47:53;;;;;;;29.53;17.40;;;;;;;-142.65;99.27;50180.75;5113786;28;20651;-68
2022/10/19 07:50:19;;;;;;;34.93;17.67;;;;;;;-142.65;99.32;50176.75;5113584;28;20221;-68
2022/10/19 07:52:46;;;;;;;29.03;16.63;;;;;;;-142.65;99.35;50170.78;5113773;28;20680;-68
2022/10/19 07:55:12;;;;;;;26.67;16.10;;;;;;;-142.65;99.40;50178.75;5114190;28;20185;-67
2022/10/19 07:57:38;;;;;;;38.90;18.00;;;;;;;-142.65;99.62;50170.78;5113627;28;20258;-67
2022/10/19 08:00:09;;;;;;;26.07;16.17;;;;;;;-142.65;99.63;50174.75;5113875;28;20216;-68
2022/10/19 08:02:37;;;;;;;39.97;18.03;;;;;;;-142.65;99.72;50180.75;5113605;28;20192;-68
2022/10/19 08:05:23;;;;;;;28.00;16.93;;;;;;;-142.65;99.84;50174.75;5113613;28;20640;-68
2022/10/19 08:07:50;;;;;;;24.23;17.03;;;;;;;-142.65;100.00;50178.75;5113569;28;20742;-68
2022/10/19 08:10:16;;;;;;;25.73;16.13;;;;;;;-142.65;99.96;50168.78;5113488;28;20691;-68
2022/10/19 08:12:43;;;;;;;25.13;16.83;;;;;;;-142.65;100.00;50180.75;5113564;28;20191;-68
2022/10/19 08:15:09;;;;;;;20.90;15.50;;;;;;;-142.65;100.00;50174.75;5113404;28;20674;-68
2022/10/19 08:17:36;;;;;;;25.13;15.17;;;;;;;-142.65;100.00;50180.75;5113522;28;20185;-68
2022/10/19 08:20:05;;;;;;;23.83;15.20;;;;;;;-142.65;100.00;50168.78;5113394;28;20669;-68
2022/10/19 08:22:32;;;;;;;23.80;14.90;;;;;;;-142.65;100.00;50172.78;5113934;28;20194;-68
2022/10/19 08:24:59;;;;;;;19.23;15.17;;;;;;;-142.65;100.00;50178.75;5113448;28;20181;-68
2022/10/19 08:27:25;;;;;;;29.07;16.07;;;;;;;-142.65;100.00;50180.75;5113790;28;20177;-68
2022/10/19 08:29:52;;;;;;;21.97;14.93;;;;;;;-142.65;100.00;50174.75;5113590;28;20184;-68
2022/10/19 08:32:18;;;;;;;23.37;15.60;;;;;;;-142.65;100.00;50178.75;5113364;28;20189;-68
2022/10/19 08:34:45;;;;;;;25.83;16.63;;;;;;;-142.65;100.00;50174.75;5113281;28;20196;-68
2022/10/19 08:37:11;;;;;;;24.90;15.57;;;;;;;-142.65;100.00;50170.78;5113555;28;20193;-68
2022/10/19 08:39:57;;;;;;;22.00;16.20;;;;;;;-142.65;100.00;50172.78;5113244;28;20184;-68
2022/10/19 08:42:51;;;;;;;20.10;15.33;;;;;;;-142.65;100.00;50168.78;5113612;28;20169;-68
2022/10/19 08:45:40;;;;;;;20.47;15.73;;;;;;;-142.65;100.00;50172.78;5113570;28;20174;-68
2022/10/19 08:48:22;;;;;;;25.67;15.97;;;;;;;-142.65;100.00;50170.78;5113538;28;20188;-68
2022/10/19 08:50:49;;;;;;;26.27;16.23;;;;;;;-142.65;100.00;50170.78;5114994;28;20254;-68
2022/10/19 08:53:37;;;;;;;37.57;16.93;;;;;;;-142.65;100.00;50168.78;5117097;28;20276;-68
2022/10/19 08:56:24;;;;;;;25.73;15.83;;;;;;;-142.65;99.76;50174.75;5117244;28;20193;-68
2022/10/19 08:59:25;;;;;;;27.93;16.40;;;;;;;-142.65;99.05;50118.97;5117206;28;20196;-68
2022/10/19 09:02:23;;;;;;;26.83;16.97;;;;;;;-142.65;98.36;50174.75;5117006;28;20215;-68
2022/10/19 09:04:59;;;;;;;39.17;17.47;;;;;;;-142.65;97.50;50174.75;5082954;28;20227;-68
2022/10/19 09:07:31;;;;;;;37.43;17.40;;;;;;;;;;5117367;28;20183;-68
2022/10/19 09:10:09;;;;;;;29.63;17.20;;;;;;;-142.65;96.00;50170.78;5116690;28;20193;-69
2022/10/19 09:12:59;;;;;;;37.73;17.47;;;;;;;-142.65;95.40;50176.75;5117034;28;20173;-68
2022/10/19 09:15:38;;;;;;;35.07;16.23;;;;;;;-142.65;94.71;50170.78;5116537;28;20189;-68
2022/10/19 09:18:27;;;;;;;32.30;15.77;;;;;;;-142.65;94.21;50170.78;5117042;28;20173;-68
2022/10/19 09:21:19;;;;;;;22.90;14.53;;;;;;;-142.65;93.96;50170.78;5116977;28;20201;-69
2022/10/19 09:24:05;;;;;;;29.63;16.47;;;;;;;;;;5116721;28;20173;-68
2022/10/19 09:26:38;;;;;;;31.30;15.10;;;;;;;-142.65;93.35;50178.75;5116572;28;20185;-68
2022/10/19 09:29:24;;;;;;;19.90;14.47;;;;;;;-142.65;92.08;50172.78;5116632;28;20178;-69
2022/10/19 09:31:55;;;;;;;31.10;15.70;;;;;;;-142.65;91.06;50172.78;5116562;28;20212;-69
2022/10/19 09:34:42;;;;;;;26.83;12.70;;;;;;;-142.65;90.22;50172.78;5116828;28;20260;-68
2022/10/19 09:37:11;;;;;;;19.40;12.80;;;;;;;-142.65;89.21;50172.78;5116746;28;20647;-68
2022/10/19 09:39:48;;;;;;;21.07;12.10;;;;;;;-142.65;89.44;50170.78;5116503;28;20611;-68
2022/10/19 09:42:22;;;;;;;28.00;12.13;;;;;;;;;;5116382;28;20231;-68
2022/10/19 09:44:50;;;;;;;29.63;13.20;;;;;;;-142.65;87.68;50170.78;5116631;28;20539;-68
2022/10/19 09:47:28;;;;;;;14.67;11.03;;;;;;;-142.65;85.78;50172.78;5116023;28;20173;-68
2022/10/19 09:50:23;;;;;;;17.50;11.33;;;;;;;-142.65;85.22;50170.78;5116218;28;20181;-69
2022/10/19 09:52:56;;;;;;;14.87;10.67;;;;;;;-142.65;84.95;50170.78;5115894;28;20182;-69
2022/10/19 09:55:25;;;;;;;14.30;9.73;;;;;;;;;;5116384;28;20179;-69
2022/10/19 09:58:11;;;;;;;16.67;8.93;;;;;;;;;;5116250;28;20205;-69
2022/10/19 10:00:49;;;;;;;7.77;6.60;;;;;;;-142.65;81.91;50162.81;5098138;28;20594;-68
2022/10/19 10:03:23;;;;;;;6.03;5.70;;;;;;;-142.65;79.84;50170.78;5114902;28;20635;-68
2022/10/19 10:05:51;;;;;;;5.73;5.43;;;;;;;-142.65;80.00;50162.81;5116290;28;20177;-69
2022/10/19 10:08:22;;;;;;;5.00;4.70;;;;;;;-142.65;79.10;50164.81;5115878;28;20200;-69
2022/10/19 10:11:07;;;;;;;4.17;3.87;;;;;;;-142.65;78.50;50176.75;5115875;28;20228;-69
2022/10/19 10:13:40;;;;;;;3.77;3.67;;;;;;;-142.65;77.38;50172.78;5115557;28;20197;-68
2022/10/19 10:16:09;;;;;;;3.27;3.17;;;;;;;-142.65;76.67;50168.78;5115666;28;20277;-68
2022/10/19 10:18:54;;;;;;;3.63;3.53;;;;;;;;;;5115390;28;20188;-68
2022/10/19 10:21:21;;;;;;;4.03;3.83;;;;;;;;;;5115348;28;20212;-69
2022/10/19 10:24:01;;;;;;;7.63;3.83;;;;;;;-142.65;75.78;50170.78;5115570;28;20235;-69
2022/10/19 10:26:27;;;;;;;4.23;3.30;;;;;;;;;;5115236;28;20168;-68
2022/10/19 10:28:54;;;;;;;6.10;3.30;;;;;;;-142.65;75.77;50174.75;5115204;28;20557;-68
2022/10/19 10:31:28;;;;;;;3.00;2.80;;;;;;;;;;5114994;28;20240;-68
2022/10/19 10:34:02;;;;;;;3.60;3.43;;;;;;;-142.65;74.70;50168.78;5114934;28;20181;-69
2022/10/19 10:36:49;;;;;;;2.90;2.80;;;;;;;;;;5115107;28;20201;-69
2022/10/19 10:39:16;;;;;;;2.40;2.30;;;;;;;-142.65;73.98;50170.78;5097419;28;20592;-69
2022/10/19 10:41:46;;;;;;;2.63;2.53;;;;;;;-142.65;74.84;50168.78;5114759;28;20205;-69
2022/10/19 10:44:22;;;;;;;4.80;2.73;;;;;;;-142.65;74.10;50176.75;5114931;28;20668;-68
2022/10/19 10:46:54;;;;;;;3.53;2.53;;;;;;;-142.65;73.90;50164.81;5115103;28;20170;-68
2022/10/19 10:49:23;;;;;;;2.70;2.53;;;;;;;;;;5114956;28;20173;-69
2022/10/19 10:51:53;;;;;;;2.97;2.17;;;;;;;-142.65;73.13;50168.78;5114971;28;20570;-68
2022/10/19 10:54:21;;;;;;;5.00;2.33;;;;;;;;;;5114954;28;20174;-68
2022/10/19 10:57:08;;;;;;;5.80;2.50;;;;;;;;;;5114603;28;20205;-68
2022/10/19 10:59:52;;;;;;;2.50;2.30;;;;;;;;;;5114645;28;20196;-69
2022/10/19 11:02:37;;;;;;;4.13;2.67;;;;;;;;;;5114606;28;20173;-68
2022/10/19 11:05:16;;;;;;;4.23;2.83;;;;;;;-142.65;71.81;50168.78;5115042;28;20566;-68
2022/10/19 11:07:46;;;;;;;3.10;2.93;;;;;;;-142.65;70.32;50168.78;5114731;28;20508;-68
2022/10/19 11:10:20;;;;;;;3.50;3.40;;;;;;;;;;5114730;28;20205;-69
2022/10/19 11:12:55;;;;;;;5.40;2.10;;;;;;;-142.65;69.60;50162.81;5114223;28;20638;-68
2022/10/19 11:15:26;;;;;;;1.97;1.97;;;;;;;-142.65;70.13;50168.78;5114302;28;20541;-68
2022/10/19 11:18:00;;;;;;;1.97;1.87;;;;;;;-142.65;69.58;50170.78;5114230;28;20193;-68
2022/10/19 11:20:29;;;;;;;2.50;2.17;;;;;;;-142.65;69.76;50168.78;5114453;28;20209;-69
2022/10/19 11:23:17;;;;;;;2.50;2.40;;;;;;;-142.65;69.93;50172.78;5114217;28;20185;-68
2022/10/19 11:25:56;;;;;;;3.67;2.53;;;;;;;-142.65;69.69;50164.81;5114696;28;20173;-68
2022/10/19 11:28:37;;;;;;;3.33;2.30;;;;;;;-142.65;70.02;50170.78;5114121;28;20624;-68
2022/10/19 11:31:25;;;;;;;2.13;2.00;;;;;;;-142.65;69.93;50170.78;5114132;28;20213;-69
2022/10/19 11:34:06;;;;;;;2.73;2.07;;;;;;;-142.65;70.54;50168.78;5114046;28;20248;-68
2022/10/19 11:37:02;;;;;;;1.97;1.90;;;;;;;-142.65;70.61;50172.78;5113953;28;20240;-68
2022/10/19 11:39:53;;;;;;;2.90;2.77;;;;;;;-142.65;70.27;50170.78;5113916;28;20191;-68
2022/10/19 11:42:31;;;;;;;3.60;2.13;;;;;;;-142.65;70.91;50170.78;5114621;28;20531;-68
2022/10/19 11:45:24;;;;;;;3.93;2.60;;;;;;;;;;5114260;28;20173;-68
2022/10/19 11:48:08;;;;;;;3.13;2.83;;;;;;;;;;5114175;28;20180;-68